Time,TemperatureF,DewpointF,PressureIn,WindDirection,WindDirectionDegrees,WindSpeedMPH,WindSpeedGustMPH,Humidity,HourlyPrecipIn,Conditions,Clouds,dailyrainin,SolarRadiationWatts/m^2,SoftwareType,DateUTC
2013-07-10 00:11:00,63.0,35.0,-100.00,NNW,345,2.0,5.0,34,-99.99,,,-99.99,0.010000,,2013-07-10 06:11:00,
2013-07-10 00:21:00,63.0,37.0,-100.00,North,358,2.0,4.0,37,-99.99,,,-99.99,0.000000,,2013-07-10 06:21:00,
2013-07-10 00:32:00,63.0,37.0,-100.00,North,358,2.0,4.0,37,-99.99,,,-99.99,0.000000,,2013-07-10 06:32:00,
2013-07-10 00:52:00,61.0,38.0,-100.00,WNW,298,1.0,5.0,42,-99.99,,,-99.99,0.000000,,2013-07-10 06:52:00,
2013-07-10 01:01:00,63.0,36.0,-100.00,NNE,13,5.0,11.0,36,-99.99,,,-99.99,0.000000,,2013-07-10 07:01:00,
2013-07-10 01:11:00,63.0,37.0,-100.00,NNE,16,7.0,10.0,37,-99.99,,,-99.99,0.000000,,2013-07-10 07:11:00,
2013-07-10 01:22:00,63.0,37.0,-100.00,NNE,16,7.0,10.0,37,-99.99,,,-99.99,0.000000,,2013-07-10 07:22:00,
2013-07-10 01:43:00,61.0,36.0,-100.00,North,354,3.0,5.0,38,-99.99,,,-99.99,0.000000,,2013-07-10 07:43:00,
2013-07-10 01:53:00,61.0,36.0,-100.00,North,354,3.0,5.0,38,-99.99,,,-99.99,0.000000,,2013-07-10 07:53:00,
2013-07-10 02:11:00,59.0,37.0,-100.00,NNE,19,5.0,5.0,43,-99.99,,,-99.99,0.000000,,2013-07-10 08:11:00,
2013-07-10 02:22:00,59.0,38.0,-100.00,NNE,13,5.0,6.0,45,-99.99,,,-99.99,0.000000,,2013-07-10 08:22:00,
2013-07-10 02:32:00,58.0,37.0,-100.00,NNE,14,4.0,4.0,44,-99.99,,,-99.99,0.000000,,2013-07-10 08:32:00,
2013-07-10 02:42:00,58.0,37.0,-100.00,NNE,14,4.0,4.0,44,-99.99,,,-99.99,0.000000,,2013-07-10 08:42:00,
2013-07-10 03:02:00,58.0,39.0,-100.00,NNW,344,4.0,6.0,48,-99.99,,,-99.99,0.000000,,2013-07-10 09:02:00,
2013-07-10 03:21:00,57.0,40.0,-100.00,NW,311,3.0,4.0,51,-99.99,,,-99.99,0.000000,,2013-07-10 09:21:00,
2013-07-10 03:32:00,56.0,39.0,-100.00,NNE,13,4.0,6.0,52,-99.99,,,-99.99,0.000000,,2013-07-10 09:32:00,
2013-07-10 03:52:00,58.0,40.0,-100.00,NE,46,1.0,5.0,52,-99.99,,,-99.99,0.000000,,2013-07-10 09:52:00,
2013-07-10 04:01:00,56.0,36.0,-100.00,NNE,18,4.0,7.0,46,-99.99,,,-99.99,0.000000,,2013-07-10 10:01:00,
2013-07-10 04:13:00,56.0,36.0,-100.00,NNE,18,4.0,7.0,46,-99.99,,,-99.99,0.000000,,2013-07-10 10:13:00,
2013-07-10 04:23:00,57.0,38.0,-100.00,NNE,17,5.0,5.0,48,-99.99,,,-99.99,0.000000,,2013-07-10 10:23:00,
2013-07-10 04:50:00,-999.0,-99.9,-100.00,North,11,5.0,5.0,-999,-99.99,,,-99.99,,,2013-07-10 10:50:00,
2013-07-10 05:00:00,-999.0,-99.9,-100.00,NNW,339,3.0,5.0,-999,-99.99,,,-99.99,,,2013-07-10 11:00:00,
2013-07-10 05:22:00,53.0,38.0,-100.00,NNW,332,2.0,3.0,55,-99.99,,,-99.99,0.000000,,2013-07-10 11:22:00,
2013-07-10 05:33:00,53.0,39.0,-100.00,NE,38,1.0,3.0,57,-99.99,,,-99.99,0.000000,,2013-07-10 11:33:00,
2013-07-10 05:43:00,52.0,40.0,-100.00,NW,312,2.0,4.0,63,-99.99,,,-99.99,0.000000,,2013-07-10 11:43:00,
2013-07-10 05:52:00,51.0,39.0,-100.00,SSE,151,2.0,2.0,64,-99.99,,,-99.99,0.000000,,2013-07-10 11:52:00,
2013-07-10 06:11:00,49.0,39.0,-100.00,WSW,243,2.0,2.0,67,-99.99,,,-99.99,0.000000,,2013-07-10 12:11:00,
2013-07-10 06:22:00,49.0,39.0,-100.00,ENE,75,3.0,3.0,67,-99.99,,,-99.99,0.480000,,2013-07-10 12:22:00,
2013-07-10 06:33:00,49.0,39.0,-100.00,North,10,2.0,2.0,67,-99.99,,,-99.99,1.670000,,2013-07-10 12:33:00,
2013-07-10 06:52:00,49.0,36.0,-100.00,NW,306,2.0,2.0,59,-99.99,,,-99.99,14.760000,,2013-07-10 12:52:00,
2013-07-10 07:11:00,49.0,36.0,-100.00,WNW,302,2.0,3.0,61,-99.99,,,-99.99,19.690001,,2013-07-10 13:11:00,
2013-07-10 07:21:00,49.0,36.0,-100.00,North,5,2.0,2.0,59,-99.99,,,-99.99,24.320000,,2013-07-10 13:21:00,
2013-07-10 07:42:00,50.0,39.0,-100.00,NNE,14,4.0,5.0,64,-99.99,,,-99.99,34.470001,,2013-07-10 13:42:00,
2013-07-10 08:01:00,54.0,39.0,-100.00,NNE,16,5.0,6.0,56,-99.99,,,-99.99,95.500000,,2013-07-10 14:01:00,
2013-07-10 08:11:00,56.0,40.0,-100.00,NNE,23,3.0,4.0,54,-99.99,,,-99.99,195.000000,,2013-07-10 14:11:00,
2013-07-10 08:22:00,58.0,41.0,-100.00,SE,124,2.0,5.0,54,-99.99,,,-99.99,227.699997,,2013-07-10 14:22:00,
2013-07-10 08:43:00,58.0,41.0,-100.00,South,184,6.0,6.0,54,-99.99,,,-99.99,294.299988,,2013-07-10 14:43:00,
2013-07-10 09:01:00,60.0,42.0,-100.00,South,182,6.0,6.0,52,-99.99,,,-99.99,364.399994,,2013-07-10 15:01:00,
2013-07-10 09:11:00,60.0,42.0,-100.00,South,190,6.0,7.0,51,-99.99,,,-99.99,403.799988,,2013-07-10 15:11:00,
2013-07-10 09:22:00,60.0,41.0,-100.00,SSW,202,5.0,6.0,49,-99.99,,,-99.99,444.799988,,2013-07-10 15:22:00,
2013-07-10 09:34:00,61.0,43.0,-100.00,SSW,201,3.0,4.0,51,-99.99,,,-99.99,487.799988,,2013-07-10 15:34:00,
2013-07-10 09:52:00,64.0,38.0,-100.00,SW,223,2.0,3.0,37,-99.99,,,-99.99,644.900024,,2013-07-10 15:52:00,
2013-07-10 10:01:00,67.0,38.0,-100.00,South,172,4.0,5.0,34,-99.99,,,-99.99,722.500000,,2013-07-10 16:01:00,
2013-07-10 10:11:00,67.0,42.0,-100.00,South,187,4.0,5.0,39,-99.99,,,-99.99,750.599976,,2013-07-10 16:11:00,
2013-07-10 10:22:00,69.0,38.0,-100.00,South,175,4.0,4.0,31,-99.99,,,-99.99,786.299988,,2013-07-10 16:22:00,
2013-07-10 10:33:00,69.0,42.0,-100.00,South,188,4.0,5.0,36,-99.99,,,-99.99,811.000000,,2013-07-10 16:33:00,
2013-07-10 10:44:00,70.0,39.0,-100.00,SSW,198,4.0,7.0,32,-99.99,,,-99.99,866.000000,,2013-07-10 16:44:00,
2013-07-10 10:53:00,70.0,39.0,-100.00,SSW,198,4.0,7.0,32,-99.99,,,-99.99,866.000000,,2013-07-10 16:53:00,
2013-07-10 11:01:00,71.0,35.0,-100.00,South,184,6.0,6.0,26,-99.99,,,-99.99,911.000000,,2013-07-10 17:01:00,
2013-07-10 11:11:00,72.0,34.0,-100.00,SSW,197,6.0,7.0,24,-99.99,,,-99.99,955.000000,,2013-07-10 17:11:00,
2013-07-10 11:22:00,72.0,36.0,-100.00,South,190,5.0,6.0,26,-99.99,,,-99.99,996.000000,,2013-07-10 17:22:00,
2013-07-10 11:32:00,74.0,34.0,-100.00,South,190,6.0,7.0,22,-99.99,,,-99.99,1027.000000,,2013-07-10 17:32:00,
2013-07-10 11:42:00,75.0,31.0,-100.00,South,177,5.0,7.0,19,-99.99,,,-99.99,1006.000000,,2013-07-10 17:42:00,
2013-07-10 11:52:00,75.0,37.0,-100.00,SW,217,3.0,5.0,25,-99.99,,,-99.99,980.000000,,2013-07-10 17:52:00,
2013-07-10 12:02:00,76.0,34.0,-100.00,SW,221,4.0,5.0,21,-99.99,,,-99.99,977.000000,,2013-07-10 18:02:00,
2013-07-10 12:11:00,76.0,34.0,-100.00,SW,221,4.0,5.0,21,-99.99,,,-99.99,977.000000,,2013-07-10 18:11:00,
2013-07-10 12:21:00,79.0,34.0,-100.00,SSW,213,5.0,6.0,19,-99.99,,,-99.99,986.000000,,2013-07-10 18:21:00,
2013-07-10 12:32:00,79.0,34.0,-100.00,SSW,213,5.0,6.0,19,-99.99,,,-99.99,986.000000,,2013-07-10 18:32:00,
2013-07-10 12:44:00,81.0,38.0,-100.00,SSW,194,6.0,6.0,21,-99.99,,,-99.99,995.000000,,2013-07-10 18:44:00,
2013-07-10 12:52:00,81.0,42.0,-100.00,SW,216,5.0,6.0,24,-99.99,,,-99.99,1002.000000,,2013-07-10 18:52:00,
2013-07-10 13:11:00,85.0,39.0,-100.00,SSW,193,3.0,5.0,19,-99.99,,,-99.99,1019.000000,,2013-07-10 19:11:00,
2013-07-10 13:32:00,88.0,31.0,-100.00,SW,228,3.0,6.0,13,-99.99,,,-99.99,1037.000000,,2013-07-10 19:32:00,
2013-07-10 13:42:00,88.0,33.0,-100.00,SSW,209,7.0,8.0,14,-99.99,,,-99.99,1039.000000,,2013-07-10 19:42:00,
2013-07-10 13:52:00,88.0,33.0,-100.00,SSW,209,7.0,8.0,14,-99.99,,,-99.99,1039.000000,,2013-07-10 19:52:00,
2013-07-10 14:01:00,89.0,32.0,-100.00,South,173,4.0,6.0,12,-99.99,,,-99.99,1037.000000,,2013-07-10 20:01:00,
2013-07-10 14:11:00,87.0,38.0,-100.00,SSW,211,6.0,7.0,17,-99.99,,,-99.99,1032.000000,,2013-07-10 20:11:00,
2013-07-10 14:22:00,88.0,37.0,-100.00,SW,218,5.0,7.0,16,-99.99,,,-99.99,1034.000000,,2013-07-10 20:22:00,
2013-07-10 14:32:00,91.0,23.0,-100.00,South,170,8.0,9.0,8,-99.99,,,-99.99,1031.000000,,2013-07-10 20:32:00,
2013-07-10 14:43:00,92.0,27.0,-100.00,SSE,154,8.0,11.0,9,-99.99,,,-99.99,1008.000000,,2013-07-10 20:43:00,
2013-07-10 14:52:00,92.0,27.0,-100.00,SSE,154,8.0,11.0,9,-99.99,,,-99.99,1008.000000,,2013-07-10 20:52:00,
2013-07-10 15:01:00,92.0,27.0,-100.00,SSE,161,9.0,13.0,9,-99.99,,,-99.99,994.000000,,2013-07-10 21:01:00,
2013-07-10 15:11:00,92.0,28.0,-100.00,SSE,154,9.0,12.0,10,-99.99,,,-99.99,983.000000,,2013-07-10 21:11:00,
2013-07-10 15:21:00,92.0,34.0,-100.00,South,188,5.0,10.0,13,-99.99,,,-99.99,972.000000,,2013-07-10 21:21:00,
2013-07-10 15:32:00,93.0,27.0,-100.00,South,185,6.0,9.0,9,-99.99,,,-99.99,960.000000,,2013-07-10 21:32:00,
2013-07-10 15:52:00,92.0,34.0,-100.00,SSW,198,11.0,14.0,12,-99.99,,,-99.99,928.000000,,2013-07-10 21:52:00,
2013-07-10 16:01:00,92.0,34.0,-100.00,SSW,198,11.0,14.0,12,-99.99,,,-99.99,928.000000,,2013-07-10 22:01:00,
2013-07-10 16:11:00,92.0,31.0,-100.00,SSW,208,10.0,15.0,11,-99.99,,,-99.99,908.000000,,2013-07-10 22:11:00,
2013-07-10 16:53:00,92.0,29.0,-100.00,WNW,285,7.0,11.0,10,-99.99,,,-99.99,792.200012,,2013-07-10 22:53:00,
2013-07-10 17:01:00,92.0,28.0,-100.00,NW,316,3.0,11.0,10,-99.99,,,-99.99,764.099976,,2013-07-10 23:01:00,
2013-07-10 17:21:00,92.0,29.0,-100.00,West,262,7.0,15.0,10,-99.99,,,-99.99,734.000000,,2013-07-10 23:21:00,
2013-07-10 17:52:00,91.0,28.0,-100.00,SSW,201,9.0,13.0,10,-99.99,,,-99.99,637.799988,,2013-07-10 23:52:00,
2013-07-10 18:01:00,91.0,28.0,-100.00,SSW,201,9.0,13.0,10,-99.99,,,-99.99,637.799988,,2013-07-11 00:01:00,
2013-07-10 18:32:00,89.0,34.0,-100.00,SW,215,3.0,7.0,14,-99.99,,,-99.99,199.199997,,2013-07-11 00:32:00,
2013-07-10 19:11:00,87.0,37.0,-100.00,SSW,210,3.0,7.0,17,-99.99,,,-99.99,159.699997,,2013-07-11 01:11:00,
2013-07-10 19:43:00,92.0,33.0,-100.00,South,176,3.0,4.0,12,-99.99,,,-99.99,270.700012,,2013-07-11 01:43:00,
2013-07-10 20:22:00,82.0,40.0,-100.00,North,5,5.0,6.0,22,-99.99,,,-99.99,140.300003,,2013-07-11 02:22:00,
2013-07-10 21:21:00,75.0,38.0,-100.00,NNE,24,8.0,8.0,26,-99.99,,,-99.99,20.410000,,2013-07-11 03:21:00,
2013-07-10 22:42:00,71.0,38.0,-100.00,North,6,4.0,5.0,30,-99.99,,,-99.99,0.120000,,2013-07-11 04:42:00,
2013-07-10 22:53:00,71.0,40.0,-100.00,NNE,13,4.0,5.0,32,-99.99,,,-99.99,0.080000,,2013-07-11 04:53:00,
2013-07-10 23:12:00,69.0,41.0,-100.00,NNE,17,3.0,5.0,35,-99.99,,,-99.99,0.050000,,2013-07-11 05:12:00,
2013-07-10 23:22:00,69.0,41.0,-100.00,North,5,4.0,5.0,35,-99.99,,,-99.99,0.120000,,2013-07-11 05:22:00,
2013-07-10 23:43:00,68.0,39.0,-100.00,North,355,1.0,2.0,34,-99.99,,,-99.99,0.140000,,2013-07-11 05:43:00,
2013-07-10 23:52:00,68.0,39.0,-100.00,North,355,1.0,2.0,34,-99.99,,,-99.99,0.140000,,2013-07-11 05:52:00,